sensor_id;sensor_type;location;lat;lon;timestamp;P1;durP1;ratioP1;P2;durP2;ratioP2
19923;SDS011;10124;53.068;18.224;2022-11-11T00:01:44;25.43;;;8.60;;
19923;SDS011;10124;53.068;18.224;2022-11-11T00:04:30;19.43;;;7.30;;
19923;SDS011;10124;53.068;18.224;2022-11-11T00:07:17;11.30;;;6.60;;
19923;SDS011;10124;53.068;18.224;2022-11-11T00:10:03;13.97;;;6.93;;
19923;SDS011;10124;53.068;18.224;2022-11-11T00:12:49;20.27;;;7.10;;
19923;SDS011;10124;53.068;18.224;2022-11-11T00:15:36;22.23;;;6.90;;
19923;SDS011;10124;53.068;18.224;2022-11-11T00:18:26;14.00;;;7.07;;
19923;SDS011;10124;53.068;18.224;2022-11-11T00:21:31;16.80;;;7.43;;
19923;SDS011;10124;53.068;18.224;2022-11-11T00:24:24;18.10;;;7.50;;
19923;SDS011;10124;53.068;18.224;2022-11-11T00:27:33;17.07;;;7.20;;
19923;SDS011;10124;53.068;18.224;2022-11-11T00:30:19;14.43;;;7.27;;
19923;SDS011;10124;53.068;18.224;2022-11-11T00:33:06;21.73;;;8.23;;
19923;SDS011;10124;53.068;18.224;2022-11-11T00:35:52;26.93;;;8.30;;
19923;SDS011;10124;53.068;18.224;2022-11-11T00:38:40;16.23;;;7.93;;
19923;SDS011;10124;53.068;18.224;2022-11-11T00:41:34;16.27;;;6.77;;
19923;SDS011;10124;53.068;18.224;2022-11-11T00:44:20;15.17;;;6.53;;
19923;SDS011;10124;53.068;18.224;2022-11-11T00:47:06;17.10;;;7.37;;
19923;SDS011;10124;53.068;18.224;2022-11-11T00:50:13;23.37;;;7.70;;
19923;SDS011;10124;53.068;18.224;2022-11-11T00:53:21;17.13;;;7.23;;
19923;SDS011;10124;53.068;18.224;2022-11-11T00:56:11;13.97;;;6.77;;
19923;SDS011;10124;53.068;18.224;2022-11-11T00:58:58;14.53;;;6.97;;
19923;SDS011;10124;53.068;18.224;2022-11-11T01:01:44;16.17;;;7.53;;
19923;SDS011;10124;53.068;18.224;2022-11-11T01:04:31;21.57;;;6.93;;
19923;SDS011;10124;53.068;18.224;2022-11-11T01:07:17;17.67;;;6.83;;
19923;SDS011;10124;53.068;18.224;2022-11-11T01:10:04;19.90;;;7.30;;
19923;SDS011;10124;53.068;18.224;2022-11-11T01:12:52;17.67;;;6.90;;
19923;SDS011;10124;53.068;18.224;2022-11-11T01:15:58;13.43;;;6.73;;
19923;SDS011;10124;53.068;18.224;2022-11-11T01:18:46;17.97;;;7.00;;
19923;SDS011;10124;53.068;18.224;2022-11-11T01:21:33;17.20;;;7.33;;
19923;SDS011;10124;53.068;18.224;2022-11-11T01:24:20;14.33;;;6.37;;
19923;SDS011;10124;53.068;18.224;2022-11-11T01:27:05;12.07;;;7.17;;
19923;SDS011;10124;53.068;18.224;2022-11-11T01:29:52;15.13;;;7.33;;
19923;SDS011;10124;53.068;18.224;2022-11-11T01:32:41;15.33;;;6.57;;
19923;SDS011;10124;53.068;18.224;2022-11-11T01:35:27;21.17;;;7.07;;
19923;SDS011;10124;53.068;18.224;2022-11-11T01:38:13;14.67;;;6.80;;
19923;SDS011;10124;53.068;18.224;2022-11-11T01:40:59;18.63;;;7.13;;
19923;SDS011;10124;53.068;18.224;2022-11-11T01:43:45;24.17;;;7.60;;
19923;SDS011;10124;53.068;18.224;2022-11-11T01:46:36;17.30;;;6.33;;
19923;SDS011;10124;53.068;18.224;2022-11-11T01:49:38;16.87;;;6.73;;
19923;SDS011;10124;53.068;18.224;2022-11-11T01:52:38;13.97;;;6.60;;
19923;SDS011;10124;53.068;18.224;2022-11-11T01:55:27;14.23;;;7.20;;
19923;SDS011;10124;53.068;18.224;2022-11-11T01:58:13;17.00;;;6.80;;
19923;SDS011;10124;53.068;18.224;2022-11-11T02:01:00;13.63;;;7.10;;
19923;SDS011;10124;53.068;18.224;2022-11-11T02:03:48;16.50;;;6.90;;
19923;SDS011;10124;53.068;18.224;2022-11-11T02:06:55;17.93;;;7.03;;
19923;SDS011;10124;53.068;18.224;2022-11-11T02:09:45;15.50;;;6.67;;
19923;SDS011;10124;53.068;18.224;2022-11-11T02:12:32;20.07;;;6.80;;
19923;SDS011;10124;53.068;18.224;2022-11-11T02:15:38;12.73;;;6.60;;
19923;SDS011;10124;53.068;18.224;2022-11-11T02:18:24;20.73;;;7.23;;
19923;SDS011;10124;53.068;18.224;2022-11-11T02:21:17;16.43;;;7.03;;
19923;SDS011;10124;53.068;18.224;2022-11-11T02:24:17;16.93;;;6.70;;
19923;SDS011;10124;53.068;18.224;2022-11-11T02:27:04;18.03;;;6.40;;
19923;SDS011;10124;53.068;18.224;2022-11-11T02:29:55;14.40;;;6.40;;
19923;SDS011;10124;53.068;18.224;2022-11-11T02:32:43;17.00;;;6.80;;
19923;SDS011;10124;53.068;18.224;2022-11-11T02:35:34;16.97;;;7.10;;
19923;SDS011;10124;53.068;18.224;2022-11-11T02:38:29;18.20;;;7.03;;
19923;SDS011;10124;53.068;18.224;2022-11-11T02:41:16;15.47;;;6.97;;
19923;SDS011;10124;53.068;18.224;2022-11-11T02:44:21;15.97;;;6.87;;
19923;SDS011;10124;53.068;18.224;2022-11-11T02:47:08;17.30;;;7.03;;
19923;SDS011;10124;53.068;18.224;2022-11-11T02:49:54;18.40;;;7.90;;
19923;SDS011;10124;53.068;18.224;2022-11-11T02:52:40;18.83;;;6.73;;
19923;SDS011;10124;53.068;18.224;2022-11-11T02:55:26;14.07;;;6.90;;
19923;SDS011;10124;53.068;18.224;2022-11-11T02:58:13;18.60;;;7.47;;
19923;SDS011;10124;53.068;18.224;2022-11-11T03:01:00;19.83;;;7.03;;
19923;SDS011;10124;53.068;18.224;2022-11-11T03:03:46;17.80;;;7.20;;
19923;SDS011;10124;53.068;18.224;2022-11-11T03:06:32;15.57;;;6.30;;
19923;SDS011;10124;53.068;18.224;2022-11-11T03:09:18;12.40;;;6.57;;
19923;SDS011;10124;53.068;18.224;2022-11-11T03:12:05;19.10;;;7.77;;
19923;SDS011;10124;53.068;18.224;2022-11-11T03:14:50;16.40;;;7.40;;
19923;SDS011;10124;53.068;18.224;2022-11-11T03:17:37;13.13;;;7.07;;
19923;SDS011;10124;53.068;18.224;2022-11-11T03:20:26;15.90;;;6.73;;
19923;SDS011;10124;53.068;18.224;2022-11-11T03:23:31;17.27;;;6.63;;
19923;SDS011;10124;53.068;18.224;2022-11-11T03:26:17;17.40;;;6.80;;
19923;SDS011;10124;53.068;18.224;2022-11-11T03:29:04;15.60;;;7.60;;
19923;SDS011;10124;53.068;18.224;2022-11-11T03:31:51;14.20;;;6.90;;
19923;SDS011;10124;53.068;18.224;2022-11-11T03:34:37;14.53;;;6.40;;
19923;SDS011;10124;53.068;18.224;2022-11-11T03:37:23;19.70;;;6.60;;
19923;SDS011;10124;53.068;18.224;2022-11-11T03:40:28;19.47;;;6.57;;
19923;SDS011;10124;53.068;18.224;2022-11-11T03:43:15;19.73;;;7.50;;
19923;SDS011;10124;53.068;18.224;2022-11-11T03:46:03;16.27;;;6.00;;
19923;SDS011;10124;53.068;18.224;2022-11-11T03:48:49;12.53;;;6.10;;
19923;SDS011;10124;53.068;18.224;2022-11-11T03:51:35;16.00;;;6.03;;
19923;SDS011;10124;53.068;18.224;2022-11-11T03:54:21;19.37;;;6.30;;
19923;SDS011;10124;53.068;18.224;2022-11-11T03:57:07;12.00;;;5.30;;
19923;SDS011;10124;53.068;18.224;2022-11-11T04:00:14;14.23;;;6.20;;
19923;SDS011;10124;53.068;18.224;2022-11-11T04:03:06;13.90;;;6.10;;
19923;SDS011;10124;53.068;18.224;2022-11-11T04:06:15;18.97;;;6.20;;
19923;SDS011;10124;53.068;18.224;2022-11-11T04:09:20;16.50;;;6.00;;
19923;SDS011;10124;53.068;18.224;2022-11-11T04:12:24;22.83;;;6.27;;
19923;SDS011;10124;53.068;18.224;2022-11-11T04:15:12;15.83;;;6.47;;
19923;SDS011;10124;53.068;18.224;2022-11-11T04:18:17;15.10;;;6.10;;
19923;SDS011;10124;53.068;18.224;2022-11-11T04:21:23;22.30;;;6.03;;
19923;SDS011;10124;53.068;18.224;2022-11-11T04:24:28;12.97;;;6.30;;
19923;SDS011;10124;53.068;18.224;2022-11-11T04:27:32;15.30;;;6.10;;
19923;SDS011;10124;53.068;18.224;2022-11-11T04:30:18;24.27;;;6.27;;
19923;SDS011;10124;53.068;18.224;2022-11-11T04:33:04;12.00;;;5.50;;
19923;SDS011;10124;53.068;18.224;2022-11-11T04:35:50;18.33;;;6.40;;
19923;SDS011;10124;53.068;18.224;2022-11-11T04:38:37;16.20;;;5.70;;
19923;SDS011;10124;53.068;18.224;2022-11-11T04:41:41;15.93;;;6.30;;
19923;SDS011;10124;53.068;18.224;2022-11-11T04:44:47;16.33;;;6.10;;
19923;SDS011;10124;53.068;18.224;2022-11-11T04:50:47;15.60;;;5.53;;
19923;SDS011;10124;53.068;18.224;2022-11-11T04:53:33;16.83;;;7.00;;
19923;SDS011;10124;53.068;18.224;2022-11-11T04:56:19;19.23;;;6.50;;
19923;SDS011;10124;53.068;18.224;2022-11-11T04:59:24;16.03;;;6.20;;
19923;SDS011;10124;53.068;18.224;2022-11-11T05:02:10;23.07;;;6.37;;
19923;SDS011;10124;53.068;18.224;2022-11-11T05:05:15;12.37;;;5.47;;
19923;SDS011;10124;53.068;18.224;2022-11-11T05:08:01;12.63;;;5.70;;
19923;SDS011;10124;53.068;18.224;2022-11-11T05:11:06;13.77;;;5.80;;
19923;SDS011;10124;53.068;18.224;2022-11-11T05:13:52;17.77;;;6.40;;
19923;SDS011;10124;53.068;18.224;2022-11-11T05:16:58;12.93;;;5.33;;
19923;SDS011;10124;53.068;18.224;2022-11-11T05:20:03;15.27;;;5.70;;
19923;SDS011;10124;53.068;18.224;2022-11-11T05:23:08;12.33;;;5.27;;
19923;SDS011;10124;53.068;18.224;2022-11-11T05:25:54;12.57;;;6.10;;
19923;SDS011;10124;53.068;18.224;2022-11-11T05:28:39;15.63;;;6.10;;
19923;SDS011;10124;53.068;18.224;2022-11-11T05:31:26;11.63;;;5.53;;
19923;SDS011;10124;53.068;18.224;2022-11-11T05:34:13;19.17;;;6.80;;
19923;SDS011;10124;53.068;18.224;2022-11-11T05:36:59;20.37;;;6.47;;
19923;SDS011;10124;53.068;18.224;2022-11-11T05:39:46;15.73;;;6.30;;
19923;SDS011;10124;53.068;18.224;2022-11-11T05:42:32;18.37;;;6.70;;
19923;SDS011;10124;53.068;18.224;2022-11-11T05:45:18;13.57;;;5.57;;
19923;SDS011;10124;53.068;18.224;2022-11-11T05:48:04;18.77;;;5.80;;
19923;SDS011;10124;53.068;18.224;2022-11-11T05:50:50;16.57;;;6.13;;
19923;SDS011;10124;53.068;18.224;2022-11-11T05:53:37;13.63;;;5.57;;
19923;SDS011;10124;53.068;18.224;2022-11-11T05:56:23;24.50;;;6.90;;
19923;SDS011;10124;53.068;18.224;2022-11-11T05:59:10;16.73;;;7.03;;
19923;SDS011;10124;53.068;18.224;2022-11-11T06:01:56;17.67;;;6.30;;
19923;SDS011;10124;53.068;18.224;2022-11-11T06:04:42;19.07;;;6.73;;
19923;SDS011;10124;53.068;18.224;2022-11-11T06:07:27;15.13;;;5.87;;
19923;SDS011;10124;53.068;18.224;2022-11-11T06:10:14;20.40;;;7.17;;
19923;SDS011;10124;53.068;18.224;2022-11-11T06:13:15;20.70;;;7.10;;
19923;SDS011;10124;53.068;18.224;2022-11-11T06:16:02;19.27;;;6.80;;
19923;SDS011;10124;53.068;18.224;2022-11-11T06:18:49;19.20;;;6.53;;
19923;SDS011;10124;53.068;18.224;2022-11-11T06:21:36;18.73;;;7.30;;
19923;SDS011;10124;53.068;18.224;2022-11-11T06:24:40;18.23;;;7.17;;
19923;SDS011;10124;53.068;18.224;2022-11-11T06:27:27;17.00;;;7.20;;
19923;SDS011;10124;53.068;18.224;2022-11-11T06:30:13;15.80;;;7.53;;
19923;SDS011;10124;53.068;18.224;2022-11-11T06:33:19;20.37;;;6.90;;
19923;SDS011;10124;53.068;18.224;2022-11-11T06:36:07;16.97;;;7.37;;
19923;SDS011;10124;53.068;18.224;2022-11-11T06:38:55;19.50;;;7.77;;
19923;SDS011;10124;53.068;18.224;2022-11-11T06:41:41;15.93;;;7.67;;
19923;SDS011;10124;53.068;18.224;2022-11-11T06:44:28;19.07;;;7.97;;
19923;SDS011;10124;53.068;18.224;2022-11-11T06:47:14;15.07;;;7.23;;
19923;SDS011;10124;53.068;18.224;2022-11-11T06:50:01;19.37;;;7.07;;
19923;SDS011;10124;53.068;18.224;2022-11-11T06:52:47;19.30;;;7.03;;
19923;SDS011;10124;53.068;18.224;2022-11-11T06:55:34;18.53;;;7.40;;
19923;SDS011;10124;53.068;18.224;2022-11-11T06:58:20;18.10;;;7.50;;
19923;SDS011;10124;53.068;18.224;2022-11-11T07:01:07;19.20;;;7.57;;
19923;SDS011;10124;53.068;18.224;2022-11-11T07:03:54;21.30;;;7.27;;
19923;SDS011;10124;53.068;18.224;2022-11-11T07:06:41;19.77;;;7.10;;
19923;SDS011;10124;53.068;18.224;2022-11-11T07:09:27;17.07;;;7.77;;
19923;SDS011;10124;53.068;18.224;2022-11-11T07:12:13;16.63;;;7.27;;
19923;SDS011;10124;53.068;18.224;2022-11-11T07:14:59;19.57;;;7.20;;
19923;SDS011;10124;53.068;18.224;2022-11-11T07:17:46;16.10;;;6.50;;
19923;SDS011;10124;53.068;18.224;2022-11-11T07:20:31;15.80;;;6.80;;
19923;SDS011;10124;53.068;18.224;2022-11-11T07:23:17;20.47;;;6.43;;
19923;SDS011;10124;53.068;18.224;2022-11-11T07:26:04;15.53;;;6.87;;
19923;SDS011;10124;53.068;18.224;2022-11-11T07:28:51;18.43;;;6.70;;
19923;SDS011;10124;53.068;18.224;2022-11-11T07:31:37;16.73;;;5.77;;
19923;SDS011;10124;53.068;18.224;2022-11-11T07:34:23;16.40;;;5.87;;
19923;SDS011;10124;53.068;18.224;2022-11-11T07:37:10;10.67;;;5.70;;
19923;SDS011;10124;53.068;18.224;2022-11-11T07:39:57;11.33;;;6.40;;
19923;SDS011;10124;53.068;18.224;2022-11-11T07:42:44;17.23;;;6.17;;
19923;SDS011;10124;53.068;18.224;2022-11-11T07:45:31;13.03;;;6.37;;
19923;SDS011;10124;53.068;18.224;2022-11-11T07:48:17;14.93;;;5.20;;
19923;SDS011;10124;53.068;18.224;2022-11-11T07:51:03;14.73;;;7.20;;
19923;SDS011;10124;53.068;18.224;2022-11-11T07:53:49;14.63;;;5.63;;
19923;SDS011;10124;53.068;18.224;2022-11-11T07:56:36;13.37;;;5.20;;
19923;SDS011;10124;53.068;18.224;2022-11-11T07:59:22;13.00;;;5.50;;
19923;SDS011;10124;53.068;18.224;2022-11-11T08:02:12;15.93;;;6.23;;
19923;SDS011;10124;53.068;18.224;2022-11-11T08:05:00;10.63;;;5.33;;
19923;SDS011;10124;53.068;18.224;2022-11-11T08:07:47;18.03;;;5.77;;
19923;SDS011;10124;53.068;18.224;2022-11-11T08:10:33;21.07;;;5.93;;
19923;SDS011;10124;53.068;18.224;2022-11-11T08:13:20;14.17;;;5.60;;
19923;SDS011;10124;53.068;18.224;2022-11-11T08:16:25;15.57;;;5.87;;
19923;SDS011;10124;53.068;18.224;2022-11-11T08:19:12;19.67;;;6.07;;
19923;SDS011;10124;53.068;18.224;2022-11-11T08:22:01;12.03;;;5.70;;
19923;SDS011;10124;53.068;18.224;2022-11-11T08:24:49;11.63;;;5.40;;
19923;SDS011;10124;53.068;18.224;2022-11-11T08:27:57;13.57;;;5.93;;
19923;SDS011;10124;53.068;18.224;2022-11-11T08:30:47;12.40;;;6.23;;
19923;SDS011;10124;53.068;18.224;2022-11-11T08:33:34;13.50;;;5.80;;
19923;SDS011;10124;53.068;18.224;2022-11-11T08:36:22;14.20;;;6.23;;
19923;SDS011;10124;53.068;18.224;2022-11-11T08:39:10;15.60;;;6.07;;
19923;SDS011;10124;53.068;18.224;2022-11-11T08:41:56;11.00;;;5.90;;
19923;SDS011;10124;53.068;18.224;2022-11-11T08:44:42;13.53;;;5.97;;
19923;SDS011;10124;53.068;18.224;2022-11-11T08:47:29;13.30;;;5.77;;
19923;SDS011;10124;53.068;18.224;2022-11-11T08:50:15;16.07;;;5.90;;
19923;SDS011;10124;53.068;18.224;2022-11-11T08:53:02;21.13;;;7.80;;
19923;SDS011;10124;53.068;18.224;2022-11-11T08:55:48;18.37;;;7.83;;
19923;SDS011;10124;53.068;18.224;2022-11-11T08:58:35;22.27;;;6.27;;
19923;SDS011;10124;53.068;18.224;2022-11-11T09:01:22;7.33;;;5.63;;
19923;SDS011;10124;53.068;18.224;2022-11-11T09:04:08;22.10;;;6.73;;
19923;SDS011;10124;53.068;18.224;2022-11-11T09:07:15;16.90;;;6.23;;
19923;SDS011;10124;53.068;18.224;2022-11-11T09:10:01;16.67;;;7.33;;
19923;SDS011;10124;53.068;18.224;2022-11-11T09:12:48;14.93;;;7.90;;
19923;SDS011;10124;53.068;18.224;2022-11-11T09:15:33;10.17;;;6.30;;
19923;SDS011;10124;53.068;18.224;2022-11-11T09:18:20;23.23;;;6.93;;
19923;SDS011;10124;53.068;18.224;2022-11-11T09:21:07;20.37;;;7.10;;
19923;SDS011;10124;53.068;18.224;2022-11-11T09:23:53;13.00;;;7.03;;
19923;SDS011;10124;53.068;18.224;2022-11-11T09:26:40;16.87;;;6.73;;
19923;SDS011;10124;53.068;18.224;2022-11-11T09:29:27;14.77;;;6.47;;
19923;SDS011;10124;53.068;18.224;2022-11-11T09:32:13;14.00;;;6.27;;
19923;SDS011;10124;53.068;18.224;2022-11-11T09:35:00;15.93;;;6.67;;
19923;SDS011;10124;53.068;18.224;2022-11-11T09:37:56;18.63;;;6.57;;
19923;SDS011;10124;53.068;18.224;2022-11-11T09:46:43;14.17;;;6.00;;
19923;SDS011;10124;53.068;18.224;2022-11-11T09:56:11;13.67;;;6.57;;
19923;SDS011;10124;53.068;18.224;2022-11-11T09:59:16;13.97;;;6.20;;
19923;SDS011;10124;53.068;18.224;2022-11-11T10:02:17;16.47;;;6.63;;
19923;SDS011;10124;53.068;18.224;2022-11-11T10:05:25;11.07;;;6.43;;
19923;SDS011;10124;53.068;18.224;2022-11-11T10:11:15;14.07;;;6.60;;
19923;SDS011;10124;53.068;18.224;2022-11-11T10:14:26;13.20;;;7.37;;
19923;SDS011;10124;53.068;18.224;2022-11-11T10:17:31;14.53;;;6.30;;
19923;SDS011;10124;53.068;18.224;2022-11-11T10:20:40;13.03;;;6.03;;
19923;SDS011;10124;53.068;18.224;2022-11-11T10:23:33;12.60;;;6.10;;
19923;SDS011;10124;53.068;18.224;2022-11-11T10:26:40;15.77;;;5.50;;
19923;SDS011;10124;53.068;18.224;2022-11-11T10:29:40;13.77;;;6.57;;
19923;SDS011;10124;53.068;18.224;2022-11-11T10:32:32;18.63;;;6.07;;
19923;SDS011;10124;53.068;18.224;2022-11-11T10:35:21;11.43;;;5.50;;
19923;SDS011;10124;53.068;18.224;2022-11-11T10:40:57;16.53;;;5.97;;
19923;SDS011;10124;53.068;18.224;2022-11-11T10:43:55;13.23;;;6.10;;
19923;SDS011;10124;53.068;18.224;2022-11-11T10:46:41;16.00;;;6.20;;
19923;SDS011;10124;53.068;18.224;2022-11-11T10:49:42;14.10;;;6.20;;
19923;SDS011;10124;53.068;18.224;2022-11-11T10:52:40;12.07;;;6.40;;
19923;SDS011;10124;53.068;18.224;2022-11-11T10:55:38;11.07;;;5.60;;
19923;SDS011;10124;53.068;18.224;2022-11-11T11:01:35;14.27;;;6.70;;
19923;SDS011;10124;53.068;18.224;2022-11-11T11:07:45;15.57;;;5.97;;
19923;SDS011;10124;53.068;18.224;2022-11-11T11:10:44;10.23;;;6.43;;
19923;SDS011;10124;53.068;18.224;2022-11-11T11:16:38;15.73;;;6.93;;
19923;SDS011;10124;53.068;18.224;2022-11-11T11:19:31;13.17;;;6.67;;
19923;SDS011;10124;53.068;18.224;2022-11-11T11:22:17;14.00;;;6.10;;
19923;SDS011;10124;53.068;18.224;2022-11-11T11:25:08;12.87;;;6.73;;
19923;SDS011;10124;53.068;18.224;2022-11-11T11:28:09;13.57;;;7.33;;
19923;SDS011;10124;53.068;18.224;2022-11-11T11:31:05;18.93;;;7.97;;
19923;SDS011;10124;53.068;18.224;2022-11-11T11:33:55;14.43;;;8.10;;
19923;SDS011;10124;53.068;18.224;2022-11-11T11:36:56;13.83;;;7.07;;
19923;SDS011;10124;53.068;18.224;2022-11-11T11:39:57;14.40;;;6.37;;
19923;SDS011;10124;53.068;18.224;2022-11-11T11:42:51;16.70;;;7.27;;
19923;SDS011;10124;53.068;18.224;2022-11-11T11:45:40;16.97;;;7.90;;
19923;SDS011;10124;53.068;18.224;2022-11-11T11:48:32;14.57;;;7.70;;
19923;SDS011;10124;53.068;18.224;2022-11-11T11:51:32;13.27;;;7.10;;
19923;SDS011;10124;53.068;18.224;2022-11-11T12:00:42;239.97;;;26.10;;
19923;SDS011;10124;53.068;18.224;2022-11-11T12:12:42;18.80;;;8.10;;
19923;SDS011;10124;53.068;18.224;2022-11-11T12:16:02;16.40;;;7.13;;
19923;SDS011;10124;53.068;18.224;2022-11-11T12:22:02;12.83;;;7.60;;
19923;SDS011;10124;53.068;18.224;2022-11-11T12:25:10;13.60;;;6.77;;
19923;SDS011;10124;53.068;18.224;2022-11-11T12:34:17;13.23;;;6.10;;
19923;SDS011;10124;53.068;18.224;2022-11-11T12:41:00;16.10;;;7.00;;
19923;SDS011;10124;53.068;18.224;2022-11-11T12:44:11;26.33;;;7.37;;
19923;SDS011;10124;53.068;18.224;2022-11-11T12:50:16;16.10;;;7.37;;
19923;SDS011;10124;53.068;18.224;2022-11-11T12:56:16;14.17;;;6.30;;
19923;SDS011;10124;53.068;18.224;2022-11-11T12:59:15;13.30;;;7.07;;
19923;SDS011;10124;53.068;18.224;2022-11-11T13:02:23;14.53;;;7.07;;
19923;SDS011;10124;53.068;18.224;2022-11-11T13:08:44;13.20;;;6.80;;
19923;SDS011;10124;53.068;18.224;2022-11-11T13:11:38;14.67;;;6.67;;
19923;SDS011;10124;53.068;18.224;2022-11-11T13:17:20;14.27;;;6.27;;
19923;SDS011;10124;53.068;18.224;2022-11-11T13:23:27;14.70;;;7.57;;
19923;SDS011;10124;53.068;18.224;2022-11-11T13:26:59;11.23;;;7.10;;
19923;SDS011;10124;53.068;18.224;2022-11-11T13:32:49;14.10;;;8.37;;
19923;SDS011;10124;53.068;18.224;2022-11-11T13:35:52;16.77;;;8.50;;
19923;SDS011;10124;53.068;18.224;2022-11-11T13:38:45;15.50;;;8.23;;
19923;SDS011;10124;53.068;18.224;2022-11-11T13:41:36;15.43;;;7.83;;
19923;SDS011;10124;53.068;18.224;2022-11-11T13:44:27;13.97;;;7.90;;
19923;SDS011;10124;53.068;18.224;2022-11-11T13:47:18;18.37;;;6.70;;
19923;SDS011;10124;53.068;18.224;2022-11-11T13:50:12;17.97;;;7.70;;
19923;SDS011;10124;53.068;18.224;2022-11-11T13:53:27;15.33;;;6.13;;
19923;SDS011;10124;53.068;18.224;2022-11-11T13:56:25;13.57;;;6.80;;
19923;SDS011;10124;53.068;18.224;2022-11-11T13:59:26;13.00;;;6.63;;
19923;SDS011;10124;53.068;18.224;2022-11-11T14:07:55;20.13;;;6.67;;
19923;SDS011;10124;53.068;18.224;2022-11-11T14:10:49;18.20;;;7.63;;
19923;SDS011;10124;53.068;18.224;2022-11-11T14:13:39;17.57;;;7.57;;
19923;SDS011;10124;53.068;18.224;2022-11-11T14:17:14;14.10;;;6.73;;
19923;SDS011;10124;53.068;18.224;2022-11-11T14:19:39;11.53;;;6.93;;
19923;SDS011;10124;53.068;18.224;2022-11-11T14:22:34;19.10;;;7.43;;
19923;SDS011;10124;53.068;18.224;2022-11-11T14:25:25;22.43;;;7.57;;
19923;SDS011;10124;53.068;18.224;2022-11-11T14:28:30;14.47;;;6.47;;
19923;SDS011;10124;53.068;18.224;2022-11-11T14:37:56;17.37;;;7.37;;
19923;SDS011;10124;53.068;18.224;2022-11-11T14:40:50;16.43;;;8.23;;
19923;SDS011;10124;53.068;18.224;2022-11-11T14:43:37;18.43;;;7.97;;
19923;SDS011;10124;53.068;18.224;2022-11-11T14:46:25;14.10;;;7.57;;
19923;SDS011;10124;53.068;18.224;2022-11-11T14:49:27;16.87;;;7.30;;
19923;SDS011;10124;53.068;18.224;2022-11-11T14:52:38;15.77;;;7.13;;
19923;SDS011;10124;53.068;18.224;2022-11-11T14:55:28;13.77;;;6.80;;
19923;SDS011;10124;53.068;18.224;2022-11-11T14:58:23;13.77;;;7.10;;
19923;SDS011;10124;53.068;18.224;2022-11-11T15:01:13;14.77;;;7.50;;
19923;SDS011;10124;53.068;18.224;2022-11-11T15:04:03;16.80;;;7.87;;
19923;SDS011;10124;53.068;18.224;2022-11-11T15:07:00;17.83;;;7.63;;
19923;SDS011;10124;53.068;18.224;2022-11-11T15:22:56;15.97;;;6.97;;
19923;SDS011;10124;53.068;18.224;2022-11-11T15:25:54;15.20;;;8.37;;
19923;SDS011;10124;53.068;18.224;2022-11-11T15:29:10;15.37;;;8.00;;
19923;SDS011;10124;53.068;18.224;2022-11-11T15:32:15;20.27;;;8.83;;
19923;SDS011;10124;53.068;18.224;2022-11-11T15:38:29;17.03;;;8.57;;
19923;SDS011;10124;53.068;18.224;2022-11-11T15:41:20;13.77;;;7.97;;
19923;SDS011;10124;53.068;18.224;2022-11-11T15:44:26;16.13;;;8.13;;
19923;SDS011;10124;53.068;18.224;2022-11-11T15:47:15;15.53;;;9.17;;
19923;SDS011;10124;53.068;18.224;2022-11-11T15:50:05;23.67;;;12.23;;
19923;SDS011;10124;53.068;18.224;2022-11-11T15:53:19;12.90;;;7.80;;
19923;SDS011;10124;53.068;18.224;2022-11-11T15:56:08;12.60;;;7.60;;
19923;SDS011;10124;53.068;18.224;2022-11-11T15:58:55;16.87;;;7.67;;
19923;SDS011;10124;53.068;18.224;2022-11-11T16:01:42;14.83;;;7.80;;
19923;SDS011;10124;53.068;18.224;2022-11-11T16:04:29;17.27;;;6.93;;
19923;SDS011;10124;53.068;18.224;2022-11-11T16:07:36;14.07;;;7.60;;
19923;SDS011;10124;53.068;18.224;2022-11-11T16:10:34;15.57;;;8.20;;
19923;SDS011;10124;53.068;18.224;2022-11-11T16:13:24;20.30;;;9.30;;
19923;SDS011;10124;53.068;18.224;2022-11-11T16:16:23;16.77;;;8.10;;
19923;SDS011;10124;53.068;18.224;2022-11-11T16:19:19;14.83;;;9.40;;
19923;SDS011;10124;53.068;18.224;2022-11-11T16:25:02;24.20;;;11.23;;
19923;SDS011;10124;53.068;18.224;2022-11-11T16:27:49;16.90;;;9.20;;
19923;SDS011;10124;53.068;18.224;2022-11-11T16:30:38;19.43;;;9.30;;
19923;SDS011;10124;53.068;18.224;2022-11-11T16:36:12;15.80;;;9.63;;
19923;SDS011;10124;53.068;18.224;2022-11-11T16:39:11;22.10;;;11.23;;
19923;SDS011;10124;53.068;18.224;2022-11-11T16:42:00;22.53;;;13.77;;
19923;SDS011;10124;53.068;18.224;2022-11-11T16:47:43;17.10;;;10.37;;
19923;SDS011;10124;53.068;18.224;2022-11-11T16:50:32;15.30;;;8.83;;
19923;SDS011;10124;53.068;18.224;2022-11-11T16:53:44;20.10;;;9.87;;
19923;SDS011;10124;53.068;18.224;2022-11-11T16:56:40;26.90;;;10.80;;
19923;SDS011;10124;53.068;18.224;2022-11-11T17:02:21;19.17;;;10.43;;
19923;SDS011;10124;53.068;18.224;2022-11-11T17:05:10;14.10;;;9.23;;
19923;SDS011;10124;53.068;18.224;2022-11-11T17:07:56;20.37;;;11.47;;
19923;SDS011;10124;53.068;18.224;2022-11-11T17:10:43;21.20;;;11.50;;
19923;SDS011;10124;53.068;18.224;2022-11-11T17:13:29;20.27;;;12.60;;
19923;SDS011;10124;53.068;18.224;2022-11-11T17:16:22;20.43;;;12.27;;
19923;SDS011;10124;53.068;18.224;2022-11-11T17:19:08;24.07;;;12.57;;
19923;SDS011;10124;53.068;18.224;2022-11-11T17:22:02;32.00;;;14.53;;
19923;SDS011;10124;53.068;18.224;2022-11-11T17:24:52;22.53;;;13.57;;
19923;SDS011;10124;53.068;18.224;2022-11-11T17:27:39;23.00;;;12.83;;
19923;SDS011;10124;53.068;18.224;2022-11-11T17:30:26;20.63;;;11.73;;
19923;SDS011;10124;53.068;18.224;2022-11-11T17:33:12;20.20;;;11.43;;
19923;SDS011;10124;53.068;18.224;2022-11-11T17:35:58;16.23;;;10.47;;
19923;SDS011;10124;53.068;18.224;2022-11-11T17:38:46;18.40;;;10.90;;
19923;SDS011;10124;53.068;18.224;2022-11-11T17:41:32;18.60;;;10.60;;
19923;SDS011;10124;53.068;18.224;2022-11-11T17:44:19;19.20;;;11.30;;
19923;SDS011;10124;53.068;18.224;2022-11-11T17:47:05;22.03;;;12.00;;
19923;SDS011;10124;53.068;18.224;2022-11-11T17:49:52;17.93;;;10.47;;
19923;SDS011;10124;53.068;18.224;2022-11-11T17:52:45;18.47;;;9.97;;
19923;SDS011;10124;53.068;18.224;2022-11-11T17:55:31;20.47;;;10.93;;
19923;SDS011;10124;53.068;18.224;2022-11-11T17:58:18;32.90;;;17.30;;
19923;SDS011;10124;53.068;18.224;2022-11-11T18:01:08;30.20;;;16.17;;
19923;SDS011;10124;53.068;18.224;2022-11-11T18:03:56;18.67;;;12.10;;
19923;SDS011;10124;53.068;18.224;2022-11-11T18:06:43;17.33;;;10.80;;
19923;SDS011;10124;53.068;18.224;2022-11-11T18:09:29;19.93;;;10.73;;
19923;SDS011;10124;53.068;18.224;2022-11-11T18:12:15;15.40;;;10.73;;
19923;SDS011;10124;53.068;18.224;2022-11-11T18:15:01;19.90;;;10.63;;
19923;SDS011;10124;53.068;18.224;2022-11-11T18:17:49;20.67;;;11.47;;
19923;SDS011;10124;53.068;18.224;2022-11-11T18:20:36;18.43;;;9.47;;
19923;SDS011;10124;53.068;18.224;2022-11-11T18:23:22;17.10;;;11.07;;
19923;SDS011;10124;53.068;18.224;2022-11-11T18:26:13;21.00;;;10.03;;
19923;SDS011;10124;53.068;18.224;2022-11-11T18:29:00;17.87;;;10.03;;
19923;SDS011;10124;53.068;18.224;2022-11-11T18:31:45;16.50;;;10.17;;
19923;SDS011;10124;53.068;18.224;2022-11-11T18:34:39;20.67;;;10.40;;
19923;SDS011;10124;53.068;18.224;2022-11-11T18:37:25;18.50;;;10.70;;
19923;SDS011;10124;53.068;18.224;2022-11-11T18:40:12;16.50;;;10.50;;
19923;SDS011;10124;53.068;18.224;2022-11-11T18:42:58;17.73;;;10.23;;